Terminal Aerodrome Forecast
Issued by NWS

Home | Current Version | Previous Version | Text Only | Print | Product List | Glossary On
Versions: 1 2 3 4 5 6 7 8 9 10 11 12 13 14 15 16 17 18 19 20 21 22 23 24 25
000
FTUS44 KMAF 211400 AAA
TAFCNM
TAF AMD
KCNM 211404Z 2114/2212 32003KT 5SM BR BKN012 OVC025
     FM211800 14008KT 4SM -SHRA BR BKN015 OVC030
      TEMPO 2120/2124 2SM TSRA BR BKN015 OVC030CB
     FM220200 17007KT 6SM -SHRA BR BKN030=

USA.gov is the U.S. government's official web portal to all federal, state and local government web resources and services.